Map

Track Data

SID SEASON NUMBER BASIN SUBBASIN NAME ISO_TIME NATURE LAT LON WMO_WIND WMO_PRES WMO_AGENCY TRACK_TYPE DIST2LAND LANDFALL IFLAG USA_AGENCY USA_ATCF_ID USA_LAT USA_LON USA_RECORD USA_STATUS USA_WIND USA_PRES USA_SSHS USA_R34_NE USA_R34_SE USA_R34_SW USA_R34_NW USA_R50_NE USA_R50_SE USA_R50_SW USA_R50_NW USA_R64_NE USA_R64_SE USA_R64_SW USA_R64_NW USA_POCI USA_ROCI USA_RMW USA_EYE TOKYO_LAT TOKYO_LON TOKYO_GRADE TOKYO_WIND TOKYO_PRES TOKYO_R50_DIR TOKYO_R50_LONG TOKYO_R50_SHORT TOKYO_R30_DIR TOKYO_R30_LONG TOKYO_R30_SHORT TOKYO_LAND CMA_LAT CMA_LON CMA_CAT CMA_WIND CMA_PRES HKO_LAT HKO_LON HKO_CAT HKO_WIND HKO_PRES NEWDELHI_LAT NEWDELHI_LON NEWDELHI_GRADE NEWDELHI_WIND NEWDELHI_PRES NEWDELHI_CI NEWDELHI_DP NEWDELHI_POCI REUNION_LAT REUNION_LON REUNION_TYPE REUNION_WIND REUNION_PRES REUNION_TNUM REUNION_CI REUNION_RMW REUNION_R34_NE REUNION_R34_SE REUNION_R34_SW REUNION_R34_NW REUNION_R50_NE REUNION_R50_SE REUNION_R50_SW REUNION_R50_NW REUNION_R64_NE REUNION_R64_SE REUNION_R64_SW REUNION_R64_NW BOM_LAT BOM_LON BOM_TYPE BOM_WIND BOM_PRES BOM_TNUM BOM_CI BOM_RMW BOM_R34_NE BOM_R34_SE BOM_R34_SW BOM_R34_NW BOM_R50_NE BOM_R50_SE BOM_R50_SW BOM_R50_NW BOM_R64_NE BOM_R64_SE BOM_R64_SW BOM_R64_NW BOM_ROCI BOM_POCI BOM_EYE BOM_POS_METHOD BOM_PRES_METHOD NADI_LAT NADI_LON NADI_CAT NADI_WIND NADI_PRES WELLINGTON_LAT WELLINGTON_LON WELLINGTON_WIND WELLINGTON_PRES DS824_LAT DS824_LON DS824_STAGE DS824_WIND DS824_PRES TD9636_LAT TD9636_LON TD9636_STAGE TD9636_WIND TD9636_PRES TD9635_LAT TD9635_LON TD9635_WIND TD9635_PRES TD9635_ROCI NEUMANN_LAT NEUMANN_LON NEUMANN_CLASS NEUMANN_WIND NEUMANN_PRES MLC_LAT MLC_LON MLC_CLASS MLC_WIND MLC_PRES USA_GUST BOM_GUST BOM_GUST_PER REUNION_GUST REUNION_GUST_PER USA_SEAHGT USA_SEARAD_NE USA_SEARAD_SE USA_SEARAD_SW USA_SEARAD_NW STORM_SPEED STORM_DIR
1973245N22088 1973 93 NI BB NOT_NAMED 1973-09-02 00:00:00 TS 22.2000 88.1000 main 0 0 O________OO___ jtwc_io IO091973 22.2000 88.1000 -1 22.2000 88.1000 TC 25 22.2000 88.1000 1 7 270
1973245N22088 1973 93 NI BB NOT_NAMED 1973-09-02 03:00:00 TS 22.2005 87.7400 main 0 0 P________PP___ IO091973 22.2026 87.7450 -1 22.2026 87.7450 TC 25 22.1963 87.7298 1 7 270
1973245N22088 1973 93 NI BB NOT_NAMED 1973-09-02 06:00:00 TS 22.1979 87.3926 main 0 0 O________OP___ jtwc_io IO091973 22.2000 87.4000 -1 22.2000 87.4000 TC 25 22.1937 87.3777 1 6 269
1973245N22088 1973 93 NI BB NOT_NAMED 1973-09-02 09:00:00 TS 22.1931 87.0722 main 0 0 P________PP___ IO091973 22.1925 87.0775 -1 22.1925 87.0775 TC 25 22.1942 87.0618 1 5 270
1973245N22088 1973 93 NI BB NOT_NAMED 1973-09-02 12:00:00 TS 22.2000 86.8000 main 0 0 O________OO___ jtwc_io IO091973 22.2000 86.8000 -1 22.2000 86.8000 TC 25 22.2000 86.8000 1 4 275
1973245N22088 1973 93 NI BB NOT_NAMED 1973-09-02 15:00:00 TS 22.2331 86.5901 main 0 0 P________PP___ IO091973 22.2424 86.5850 -1 22.2424 86.5850 TC 25 22.2146 86.6002 1 4 283
1973245N22088 1973 93 NI BB NOT_NAMED 1973-09-02 18:00:00 TS 22.2821 86.4098 main 0 0 O________OP___ jtwc_io IO091973 22.3000 86.4000 -1 22.3000 86.4000 TC 25 22.2464 86.4293 1 3 286
1973245N22088 1973 93 NI BB NOT_NAMED 1973-09-02 21:00:00 TS 22.3249 86.2345 main 0 0 P________PP___ IO091973 22.3348 86.2298 -1 22.3348 86.2298 TC 25 22.3051 86.2438 1 4 287
1973245N22088 1973 93 NI BB NOT_NAMED 1973-09-03 00:00:00 TS 22.4000 86.0000 main 0 0 O________OO___ jtwc_io IO091973 22.4000 86.0000 -1 22.4000 86.0000 TC 25 22.4000 86.0000 1 6 290
1973245N22088 1973 93 NI BB NOT_NAMED 1973-09-03 03:00:00 TS 22.5344 85.6277 main 0 0 P________PP___ IO091973 22.5275 85.6375 -1 22.5275 85.6375 TC 25 22.5480 85.6080 1 8 292
1973245N22088 1973 93 NI BB NOT_NAMED 1973-09-03 06:00:00 TS 22.7096 85.1862 main 0 0 O________OP___ jtwc_io IO091973 22.7000 85.2000 -1 22.7000 85.2000 TC 25 22.7287 85.1587 1 9 294
1973245N22088 1973 93 NI BB NOT_NAMED 1973-09-03 09:00:00 TS 22.9068 84.7151 main 0 0 P________PP___ IO091973 22.9002 84.7202 -1 22.9002 84.7202 TC 25 22.9199 84.7049 1 9 296
1973245N22088 1973 93 NI BB NOT_NAMED 1973-09-03 12:00:00 TS 23.1000 84.3000 main 0 0 O________OO___ jtwc_io IO091973 23.1000 84.3000 -1 23.1000 84.3000 TC 25 23.1000 84.3000 1 7 300
1973245N22088 1973 93 NI BB NOT_NAMED 1973-09-03 15:00:00 TS 23.2587 84.0603 main 0 0 P________PP___ IO091973 23.2647 84.0698 -1 23.2647 84.0698 TC 25 23.2466 84.0413 1 5 307
1973245N22088 1973 93 NI BB NOT_NAMED 1973-09-03 18:00:00 TS 23.3929 83.8781 main 0 0 O________OP___ jtwc_io IO091973 23.4000 83.9000 -1 23.4000 83.9000 TC 25 23.3787 83.8342 1 4 304
1973245N22088 1973 93 NI BB NOT_NAMED 1973-09-03 21:00:00 TS 23.5038 83.6600 main 0 0 P________PP___ IO091973 23.5074 83.6724 -1 23.5074 83.6724 TC 25 23.4966 83.6351 1 5 295
1973245N22088 1973 93 NI BB NOT_NAMED 1973-09-04 00:00:00 TS 23.6000 83.4000 main 0 0 O________OO___ jtwc_io IO091973 23.6000 83.4000 -1 23.6000 83.4000 TC 25 23.6000 83.4000 1 6 291
1973245N22088 1973 93 NI BB NOT_NAMED 1973-09-04 03:00:00 TS 23.7109 83.0739 main 0 0 P________PP___ IO091973 23.7075 83.0725 -1 23.7075 83.0725 TC 25 23.7178 83.0767 1 7 288
1973245N22088 1973 93 NI BB NOT_NAMED 1973-09-04 06:00:00 TS 23.8058 82.7036 main 0 0 O________OP___ jtwc_io IO091973 23.8000 82.7000 -1 23.8000 82.7000 TC 25 23.8175 82.7107 1 7 283
1973245N22088 1973 93 NI BB NOT_NAMED 1973-09-04 09:00:00 TS 23.8761 82.3098 main 0 0 P________PP___ IO091973 23.8724 82.3075 -1 23.8724 82.3075 TC 25 23.8833 82.3143 1 7 277
1973245N22088 1973 93 NI BB NOT_NAMED 1973-09-04 12:00:00 TS 23.9000 81.9000 main 0 0 O________OO___ jtwc_io IO091973 23.9000 81.9000 -1 23.9000 81.9000 TC 25 23.9000 81.9000 1 7 270
1973245N22088 1973 93 NI BB NOT_NAMED 1973-09-04 15:00:00 TS 23.8723 81.4979 main 0 0 P________PP___ IO091973 23.8798 81.5076 -1 23.8798 81.5076 TC 25 23.8573 81.4786 1 8 262
1973245N22088 1973 93 NI BB NOT_NAMED 1973-09-04 18:00:00 TS 23.7886 81.0846 main 0 0 O________OP___ jtwc_io IO091973 23.8000 81.1000 -1 23.8000 81.1000 TC 25 23.7658 81.0537 1 8 255
1973245N22088 1973 93 NI BB NOT_NAMED 1973-09-04 21:00:00 TS 23.6574 80.6488 main 0 0 P________PP___ IO091973 23.6653 80.6597 -1 23.6653 80.6597 TC 25 23.6414 80.6270 1 9 250
1973245N22088 1973 93 NI BB NOT_NAMED 1973-09-05 00:00:00 TS 23.5000 80.2000 main 0 O________OO___ jtwc_io IO091973 23.5000 80.2000 -1 23.5000 80.2000 TC 25 23.5000 80.2000 6 9 249

About IBTrACS Database

This database is a web-friendly format of International Best Track Archive for Climate Stewardship (IBTrACS), a global best track data archive curated by NOAA dating back to 1842.

Updated: 2021-12-08